This is the latest recevied weather packets stored in our database for station/object KD2VWU. If no packets are shown the sender has not sent any weather packets the latest 1 day(s).
| Time | Temp. | Humidity | Pressure | Rain* | Wind** | Luminosity | Snow |
|---|---|---|---|---|---|---|---|
| 1777992923 | 21.67° C | 60% | 1007.8 hPa | 0 mm | 0.45 m/s, 184° | - | - |
| 1777992622 | 21.11° C | 63% | 1007.9 hPa | 0 mm | 0.45 m/s, 235° | - | - |
| 1777992319 | 20.56° C | 61% | 1007.8 hPa | 0 mm | 0.89 m/s, 336° | - | - |
| 1777992016 | 20.56° C | 60% | 1008 hPa | 0 mm | 1.34 m/s, 257° | - | - |
| 1777991714 | 20.56° C | 63% | 1008 hPa | 0 mm | 1.34 m/s, 233° | - | - |
| 1777991411 | 20.56° C | 64% | 1007.9 hPa | 0 mm | 0.89 m/s, 269° | - | - |
| 1777991108 | 20° C | 64% | 1008 hPa | 0 mm | 0.45 m/s, 69° | - | - |
| 1777990805 | 20° C | 69% | 1008.1 hPa | 0 mm | 0.89 m/s, 181° | - | - |
| 1777990503 | 20° C | 67% | 1008 hPa | 0 mm | 1.34 m/s, 232° | - | - |
| 1777990199 | 19.44° C | 66% | 1008.1 hPa | 0 mm | 0.89 m/s, 252° | - | - |
| 1777989896 | 19.44° C | 69% | 1008.1 hPa | 0 mm | 2.24 m/s, 279° | - | - |
| 1777989592 | 18.89° C | 71% | 1008.1 hPa | 0 mm | 1.34 m/s, 218° | - | - |
| 1777989289 | 18.33° C | 76% | 1008.1 hPa | 0 mm | 0.45 m/s, 159° | - | - |
| 1777988985 | 17.78° C | 81% | 1008.1 hPa | 0 mm | 0 m/s | - | - |
| 1777988682 | 17.78° C | 79% | 1008.3 hPa | 0 mm | 0.45 m/s, 34° | - | - |
| 1777988379 | 17.22° C | 79% | 1007.8 hPa | 0 mm | 0.89 m/s, 266° | - | - |
| 1777988076 | 16.67° C | 81% | 1007.8 hPa | 0 mm | 0.45 m/s, 222° | - | - |
| 1777987771 | 16.11° C | 85% | 1007.7 hPa | 0 mm | 0.89 m/s, 298° | - | - |
| 1777987469 | 15.56° C | 86% | 1007.9 hPa | 0 mm | 0.45 m/s, 198° | - | - |
| 1777987166 | 15.56° C | 89% | 1007.7 hPa | 0 mm | 0 m/s | - | - |
| 1777986863 | 15° C | 88% | 1007.7 hPa | 0 mm | 0.89 m/s, 249° | - | - |
| 1777986560 | 14.44° C | 91% | 1007.5 hPa | 0 mm | 0.45 m/s, 242° | - | - |
| 1777986258 | 13.89° C | 93% | 1007.9 hPa | 0 mm | 0.45 m/s, 227° | - | - |
| 1777985955 | 13.33° C | 94% | 1007.8 hPa | 0 mm | 0.89 m/s, 264° | - | - |
| 1777985653 | 13.33° C | 96% | 1007.8 hPa | 0 mm | 0.89 m/s, 341° | - | - |
* Rain latest hour (hover to see other rain measurements)
** Current wind speed in m/s (hover to see current wind gust speed)